Time;durP1;ratioP1;P1;durP2;ratioP2;P2;SDS_P1;SDS_P2;PMS_P1;PMS_P2;Temp;Humidity;BMP_temperature;BMP_pressure;BME280_temperature;BME280_humidity;BME280_pressure;Samples;Min_cycle;Max_cycle;Signal;HPM_P1;HPM_P2
2022/07/31 00:02:00;;;;;;;9.20;5.85;;;;;;;16.07;81.74;100692.67;1784794;78;25777;-66
2022/07/31 00:04:27;;;;;;;7.83;5.97;;;;;;;16.08;81.68;100693.53;1786979;78;26362;-66
2022/07/31 00:06:53;;;;;;;8.18;5.83;;;;;;;16.08;81.78;100693.53;1789691;78;26266;-66
2022/07/31 00:09:19;;;;;;;13.65;6.17;;;;;;;16.09;81.78;100697.98;1790813;78;27403;-64
2022/07/31 00:11:45;;;;;;;8.03;5.95;;;;;;;16.09;81.75;100690.73;1785635;78;98781;-64
2022/07/31 00:14:11;;;;;;;8.68;6.40;;;;;;;16.10;81.78;100695.17;1781895;78;25788;-66
2022/07/31 00:16:38;;;;;;;7.60;5.45;;;;;;;16.10;81.76;100691.11;1782145;78;44707;-65
2022/07/31 00:19:04;;;;;;;9.35;6.65;;;;;;;16.11;81.75;100690.63;1790183;78;25740;-65
2022/07/31 00:21:29;;;;;;;15.85;5.92;;;;;;;16.10;81.79;100692.47;1792448;78;27429;-65
2022/07/31 00:23:55;;;;;;;7.72;5.65;;;;;;;16.10;81.76;100695.66;1791991;78;25760;-65
2022/07/31 00:26:21;;;;;;;9.75;5.95;;;;;;;16.10;81.72;100695.66;1792865;78;25940;-66
2022/07/31 00:28:48;;;;;;;8.88;5.20;;;;;;;16.09;81.72;100692.08;1785704;78;25807;-66
2022/07/31 00:31:14;;;;;;;13.32;6.45;;;;;;;16.10;81.67;100694.30;1784584;78;98807;-66
2022/07/31 00:33:40;;;;;;;7.35;5.70;;;;;;;16.09;81.71;100687.16;1787926;78;28219;-66
2022/07/31 00:36:07;;;;;;;11.60;5.90;;;;;;;16.09;81.71;100690.73;1782915;79;99240;-66
2022/07/31 00:38:33;;;;;;;12.88;6.25;;;;;;;16.10;81.72;100691.59;1789106;78;25848;-66
2022/07/31 00:40:59;;;;;;;7.10;5.40;;;;;;;16.07;81.71;100694.02;1792239;78;26542;-66
2022/07/31 00:43:25;;;;;;;14.00;6.20;;;;;;;16.05;81.93;100686.97;1783062;78;26209;-66
2022/07/31 00:45:52;;;;;;;7.53;6.05;;;;;;;16.03;81.87;100691.61;1794665;78;27411;-66
2022/07/31 00:48:18;;;;;;;10.68;6.50;;;;;;;16.01;81.98;100686.80;1793839;78;98799;-66
2022/07/31 00:50:44;;;;;;;9.48;6.28;;;;;;;16.00;82.01;100685.05;1787150;78;25810;-66
2022/07/31 00:53:10;;;;;;;14.10;7.22;;;;;;;15.97;82.08;100689.31;1792442;78;26453;-66
2022/07/31 00:55:37;;;;;;;10.68;6.67;;;;;;;15.95;82.13;100689.41;1794925;78;25717;-66
2022/07/31 00:58:04;;;;;;;10.13;6.33;;;;;;;15.93;82.16;100686.42;1791760;78;27380;-66
2022/07/31 01:00:31;;;;;;;9.20;6.45;;;;;;;15.92;82.17;100685.55;1790555;78;25772;-67
2022/07/31 01:02:57;;;;;;;10.10;6.85;;;;;;;15.91;82.17;100685.17;1794002;78;25781;-67
2022/07/31 01:05:23;;;;;;;13.00;6.47;;;;;;;15.90;82.19;100685.66;1792551;79;25789;-67
2022/07/31 01:07:49;;;;;;;9.95;6.35;;;;;;;15.89;82.26;100680.34;1791904;78;25883;-66
2022/07/31 01:10:27;;;;;;;8.73;6.15;;;;;;;15.88;82.39;100675.42;1793342;78;28813;-66
2022/07/31 01:13:01;;;;;;;10.23;6.62;;;;;;;15.87;82.53;100675.52;1791710;78;26605;-65
2022/07/31 01:15:28;;;;;;;12.78;6.70;;;;;;;15.87;82.53;100679.09;1791013;78;26064;-65
2022/07/31 01:17:56;;;;;;;10.28;6.08;;;;;;;15.86;82.59;100672.44;1793285;78;27926;-65
2022/07/31 01:20:22;;;;;;;10.58;6.85;;;;;;;15.85;82.67;100678.33;1789388;78;25691;-66
2022/07/31 01:23:19;;;;;;;7.97;6.28;;;;;;;15.85;82.70;100671.56;1789801;78;28030;-66
2022/07/31 01:26:07;;;;;;;11.35;6.33;;;;;;;15.84;82.77;100664.42;1788646;78;27094;-65
2022/07/31 01:29:04;;;;;;;9.93;6.42;;;;;;;15.83;82.82;100664.05;1786898;78;25666;-65
2022/07/31 01:31:35;;;;;;;16.00;6.85;;;;;;;15.82;82.82;100665.49;1791891;79;25789;-65
2022/07/31 01:34:36;;;;;;;9.05;6.17;;;;;;;15.81;82.92;100670.03;1788659;78;25953;-65
2022/07/31 01:37:29;;;;;;;7.75;5.92;;;;;;;15.81;82.98;100666.45;1789888;78;27276;-65
2022/07/31 01:40:12;;;;;;;9.75;6.50;;;;;;;15.80;83.12;100668.78;1763282;79;25843;-65
2022/07/31 01:42:42;;;;;;;9.33;5.47;;;;;;;15.78;83.14;100664.82;1764737;80;25735;-65
2022/07/31 01:45:11;;;;;;;13.05;5.97;;;;;;;15.79;83.12;100658.45;1764658;80;25846;-65
2022/07/31 01:47:39;;;;;;;12.98;5.87;;;;;;;15.79;83.12;100662.98;1770430;80;25829;-65
2022/07/31 01:50:07;;;;;;;8.93;5.78;;;;;;;15.79;83.26;100657.09;1766726;80;29416;-65
2022/07/31 01:52:35;;;;;;;6.90;5.55;;;;;;;15.79;83.23;100653.53;1761729;80;25775;-65
2022/07/31 01:55:03;;;;;;;10.78;6.10;;;;;;;15.78;83.22;100654.50;1759264;80;26449;-65
2022/07/31 01:57:31;;;;;;;9.85;5.90;;;;;;;15.77;83.18;100650.92;1759708;80;26502;-65
2022/07/31 02:00:05;;;;;;;10.48;5.92;;;;;;;15.76;83.22;100645.62;1761782;80;98559;-65
2022/07/31 02:02:33;;;;;;;9.15;5.42;;;;;;;15.74;83.28;100644.37;1767769;80;27414;-65
2022/07/31 02:05:02;;;;;;;6.30;5.40;;;;;;;15.72;83.24;100636.84;1760578;80;25845;-66
2022/07/31 02:07:28;;;;;;;17.07;5.90;;;;;;;15.72;83.22;100636.84;1746544;80;25887;-65
2022/07/31 02:09:57;;;;;;;11.88;5.90;;;;;;;15.72;83.25;100636.84;1767139;80;26380;-65
2022/07/31 02:12:24;;;;;;;11.25;6.00;;;;;;;15.71;83.23;100632.41;1759679;80;98990;-65
2022/07/31 02:14:52;;;;;;;7.55;5.20;;;;;;;15.70;83.29;100630.67;1753708;80;28008;-66
2022/07/31 02:17:18;;;;;;;9.43;5.60;;;;;;;15.69;83.27;100623.53;1755458;80;25666;-65
2022/07/31 02:19:44;;;;;;;11.85;5.33;;;;;;;15.67;83.21;100620.06;1765445;80;26265;-66
2022/07/31 02:22:10;;;;;;;15.00;6.08;;;;;;;15.67;83.38;100622.76;1767476;80;25745;-65
2022/07/31 02:24:36;;;;;;;11.15;5.87;;;;;;;15.63;83.29;100617.17;1769602;80;26148;-65
2022/07/31 02:27:03;;;;;;;11.68;5.45;;;;;;;15.62;83.25;100622.19;1761662;80;27427;-65
2022/07/31 02:29:32;;;;;;;8.88;5.62;;;;;;;15.62;83.23;100615.92;1767762;80;25823;-65
2022/07/31 02:31:59;;;;;;;8.80;5.33;;;;;;;15.61;83.26;100616.89;1763298;80;25738;-65
2022/07/31 02:34:28;;;;;;;9.03;5.35;;;;;;;15.60;83.21;100613.83;1762823;80;25856;-65
2022/07/31 02:36:54;;;;;;;11.53;5.60;;;;;;;15.57;83.17;100607.66;1764468;80;25691;-65
2022/07/31 02:39:22;;;;;;;10.85;4.72;;;;;;;15.54;83.14;100605.12;1757773;80;27556;-65
2022/07/31 02:41:49;;;;;;;10.13;5.28;;;;;;;15.53;83.13;100610.14;1753980;81;25536;-65
2022/07/31 02:44:15;;;;;;;6.70;4.53;;;;;;;15.53;83.11;100609.27;1737105;81;25750;-65
2022/07/31 02:46:43;;;;;;;12.25;4.50;;;;;;;15.52;83.14;100609.76;1768400;80;26556;-65
2022/07/31 02:49:15;;;;;;;11.73;5.08;;;;;;;15.52;83.17;100611.11;1767730;80;25761;-65
2022/07/31 02:51:41;;;;;;;12.15;4.62;;;;;;;15.50;83.22;100614.88;1768955;80;98791;-65
2022/07/31 02:54:07;;;;;;;8.88;4.58;;;;;;;15.50;83.44;100608.98;1769252;80;25291;-66
2022/07/31 02:56:34;;;;;;;12.80;4.55;;;;;;;15.50;83.41;100602.72;1760011;80;98696;-65
2022/07/31 02:59:01;;;;;;;9.40;4.83;;;;;;;15.52;83.54;100607.06;1768708;80;25879;-65
2022/07/31 03:01:27;;;;;;;9.73;5.22;;;;;;;15.51;83.42;100607.16;1767225;80;25662;-65
2022/07/31 03:03:53;;;;;;;6.25;4.55;;;;;;;15.49;83.42;100609.95;1771307;80;27352;-65
2022/07/31 03:06:19;;;;;;;8.83;4.70;;;;;;;15.49;83.35;100605.91;1775906;80;25799;-65
2022/07/31 03:08:44;;;;;;;6.28;4.47;;;;;;;15.49;83.32;100607.25;1771415;80;25841;-65
2022/07/31 03:11:11;;;;;;;7.97;4.37;;;;;;;15.50;83.40;100613.52;1762832;80;26132;-65
2022/07/31 03:13:38;;;;;;;5.67;3.95;;;;;;;15.51;83.36;100600.41;1765236;80;25697;-65
2022/07/31 03:16:07;;;;;;;6.45;4.35;;;;;;;15.51;83.28;100606.67;1771256;79;98589;-65
2022/07/31 03:18:34;;;;;;;6.90;3.87;;;;;;;15.53;83.20;100603.88;1771515;80;27162;-65
2022/07/31 03:21:00;;;;;;;7.65;4.60;;;;;;;15.55;83.17;100601.94;1769068;79;98773;-65
2022/07/31 03:23:34;;;;;;;13.98;5.03;;;;;;;15.55;83.10;100597.41;1774760;80;25845;-65
2022/07/31 03:25:57;;;;;;;4.25;3.70;;;;;;;15.56;83.04;100603.67;1768033;80;26489;-65
2022/07/31 03:28:22;;;;;;;5.87;3.98;;;;;;;15.56;82.98;100600.48;1766247;80;27614;-65
2022/07/31 03:30:52;;;;;;;8.88;3.90;;;;;;;15.57;82.94;100606.80;1774995;80;25748;-65
2022/07/31 03:33:21;;;;;;;;;;;;;;;15.56;82.88;100604.55;1779474;80;25785;-65
2022/07/31 03:35:48;;;;;;;5.40;3.65;;;;;;;15.54;82.89;100599.72;1764489;80;25780;-65
2022/07/31 03:38:14;;;;;;;8.83;4.17;;;;;;;15.52;82.85;100604.36;1768004;80;25706;-65
2022/07/31 03:40:40;;;;;;;8.48;4.30;;;;;;;15.52;82.76;100596.73;1760422;80;27411;-65
2022/07/31 03:43:06;;;;;;;10.93;3.87;;;;;;;15.52;82.72;100600.79;1753469;80;26561;-65
2022/07/31 03:45:34;;;;;;;7.80;4.40;;;;;;;15.49;82.70;100598.28;1728613;80;25881;-65
2022/07/31 03:48:01;;;;;;;9.18;4.25;;;;;;;15.46;82.77;100603.88;1751931;80;25737;-65
2022/07/31 03:50:28;;;;;;;8.70;4.65;;;;;;;15.44;82.73;100603.11;1728492;80;25870;-65
2022/07/31 03:52:57;;;;;;;9.73;4.53;;;;;;;15.43;82.73;100606.30;1755193;80;97957;-65
2022/07/31 03:55:24;;;;;;;7.30;4.30;;;;;;;15.42;82.71;100608.61;1727470;81;25731;-65
2022/07/31 03:57:51;;;;;;;11.18;5.05;;;;;;;15.40;82.70;100606.98;1752337;80;25779;-64
2022/07/31 04:00:19;;;;;;;8.80;4.90;;;;;;;15.39;82.69;100609.29;1754901;80;26438;-65
2022/07/31 04:02:45;;;;;;;12.55;5.05;;;;;;;15.40;82.69;100612.38;1752714;80;25935;-65
2022/07/31 04:05:11;;;;;;;6.47;4.67;;;;;;;15.39;82.68;100603.89;1755805;80;99063;-65
2022/07/31 04:07:37;;;;;;;15.70;5.00;;;;;;;15.38;82.69;100603.50;1755086;80;26731;-65
2022/07/31 04:10:04;;;;;;;8.55;4.50;;;;;;;15.38;82.64;100608.91;1759954;80;25779;-65
2022/07/31 04:12:30;;;;;;;7.30;4.75;;;;;;;15.36;82.69;100604.09;1752724;80;98803;-65
2022/07/31 04:14:56;;;;;;;5.42;4.28;;;;;;;15.34;82.68;100604.67;1755568;80;25790;-66
2022/07/31 04:17:22;;;;;;;9.50;4.40;;;;;;;15.33;82.86;100605.63;1745773;80;27528;-67
2022/07/31 04:19:48;;;;;;;7.03;4.08;;;;;;;15.29;82.93;100600.04;1756804;80;25944;-66
2022/07/31 04:22:14;;;;;;;10.23;4.83;;;;;;;15.28;82.99;100604.58;1749991;80;25742;-66
2022/07/31 04:24:40;;;;;;;9.25;4.60;;;;;;;15.26;83.02;100599.27;1748382;80;25937;-67
2022/07/31 04:27:06;;;;;;;7.60;4.70;;;;;;;15.25;83.05;100600.72;1756290;80;26262;-65
2022/07/31 04:29:31;;;;;;;8.20;4.85;;;;;;;15.23;83.12;100598.59;1756381;80;28241;-65
2022/07/31 04:32:00;;;;;;;11.75;5.08;;;;;;;15.24;83.07;100601.20;1750971;80;25311;-66
2022/07/31 04:34:26;;;;;;;6.12;4.17;;;;;;;15.25;83.12;100598.02;1753491;80;25867;-65
2022/07/31 04:36:54;;;;;;;7.35;5.05;;;;;;;15.26;83.07;100601.97;1752168;80;26083;-61
2022/07/31 04:39:20;;;;;;;7.97;4.55;;;;;;;15.29;83.21;100609.49;1728846;80;25831;-63
2022/07/31 04:41:46;;;;;;;13.72;4.33;;;;;;;15.33;83.24;100605.15;1762054;79;27909;-63
2022/07/31 04:44:12;;;;;;;9.63;5.12;;;;;;;15.40;83.22;100606.98;1754399;79;98977;-62
2022/07/31 04:46:37;;;;;;;8.48;4.55;;;;;;;15.44;83.17;100602.63;1750060;79;25752;-62
2022/07/31 04:49:03;;;;;;;5.90;4.20;;;;;;;15.45;83.07;100599.45;1759358;81;25830;-62
2022/07/31 04:51:29;;;;;;;6.87;4.53;;;;;;;15.49;83.21;100603.20;1755810;79;25723;-62
2022/07/31 04:53:55;;;;;;;7.50;4.30;;;;;;;15.54;83.19;100602.42;1761240;79;28174;-61
2022/07/31 04:56:40;;;;;;;9.28;5.37;;;;;;;15.60;83.14;100597.14;1752467;79;98750;-61
2022/07/31 04:59:12;;;;;;;12.28;4.65;;;;;;;15.62;83.09;100596.52;1756599;79;25928;-62
2022/07/31 05:01:40;;;;;;;8.35;4.53;;;;;;;15.66;83.05;100596.70;1756262;79;26400;-62
2022/07/31 05:04:09;;;;;;;11.78;4.70;;;;;;;15.69;83.02;100595.64;1761709;79;99132;-62
2022/07/31 05:06:41;;;;;;;7.35;4.15;;;;;;;15.72;82.97;100593.61;1739270;81;28082;-61
2022/07/31 05:09:12;;;;;;;7.45;4.20;;;;;;;15.75;82.95;100594.76;1753424;79;25784;-61
2022/07/31 05:11:39;;;;;;;12.75;5.42;;;;;;;15.80;82.95;100593.97;1726415;81;25754;-61
2022/07/31 05:14:08;;;;;;;8.73;4.50;;;;;;;15.84;82.83;100596.85;1758174;79;25864;-61
2022/07/31 05:16:37;;;;;;;14.45;4.37;;;;;;;15.83;82.75;100597.82;1757944;80;98746;-61
2022/07/31 05:19:05;;;;;;;8.90;5.28;;;;;;;15.85;82.73;100595.02;1759711;79;27431;-61
2022/07/31 05:21:31;;;;;;;8.80;4.40;;;;;;;15.85;82.77;100589.13;1756168;79;26011;-62
2022/07/31 05:23:58;;;;;;;8.60;5.53;;;;;;;15.82;82.68;100600.14;1757821;79;25804;-61
2022/07/31 05:26:26;;;;;;;7.40;4.35;;;;;;;15.82;82.66;100596.57;1740228;80;26373;-61
2022/07/31 05:28:55;;;;;;;6.65;4.05;;;;;;;15.86;82.66;100597.62;1762801;79;25769;-61
2022/07/31 05:31:21;;;;;;;10.43;3.98;;;;;;;15.92;82.67;100592.30;1757388;79;27479;-61
2022/07/31 05:33:50;;;;;;;13.40;4.50;;;;;;;16.00;82.69;100600.77;1752300;79;25781;-62
2022/07/31 05:36:17;;;;;;;8.60;3.55;;;;;;;15.98;82.55;100595.94;1752625;79;98964;-62
2022/07/31 05:38:44;;;;;;;7.33;4.03;;;;;;;16.05;82.64;100601.81;1759239;80;25797;-61
2022/07/31 05:41:11;;;;;;;7.90;4.33;;;;;;;16.12;82.49;100596.37;1747835;79;98645;-61
2022/07/31 05:43:37;;;;;;;5.83;3.92;;;;;;;16.17;82.47;100596.45;1782321;78;27401;-61
2022/07/31 05:46:05;;;;;;;7.47;3.95;;;;;;;16.21;82.29;100591.21;1786923;78;25755;-61
2022/07/31 05:48:31;;;;;;;5.95;3.77;;;;;;;16.23;82.26;100591.11;1790429;78;26496;-61
2022/07/31 05:50:58;;;;;;;6.75;4.37;;;;;;;16.27;82.21;100589.93;1783618;78;26993;-61
2022/07/31 05:53:25;;;;;;;8.60;3.45;;;;;;;16.34;82.19;100593.95;1780573;78;25816;-61
2022/07/31 05:55:52;;;;;;;3.20;2.90;;;;;;;16.34;82.00;100599.36;1795279;78;27429;-61
2022/07/31 05:58:19;;;;;;;6.30;3.83;;;;;;;16.36;81.95;100597.91;1776964;78;26002;-61
2022/07/31 06:00:47;;;;;;;7.97;3.83;;;;;;;16.41;82.03;100598.45;1784809;78;25826;-61
2022/07/31 06:03:15;;;;;;;7.53;3.75;;;;;;;16.45;81.90;100596.80;1786510;78;25762;-61
2022/07/31 06:05:42;;;;;;;7.50;3.52;;;;;;;16.48;81.72;100597.94;1780345;78;26012;-61
2022/07/31 06:08:10;;;;;;;6.67;3.77;;;;;;;16.47;81.68;100601.61;1779176;79;27608;-61
2022/07/31 06:10:36;;;;;;;9.58;3.90;;;;;;;16.50;81.61;100605.95;1778512;78;25876;-61
2022/07/31 06:13:04;;;;;;;7.10;3.80;;;;;;;16.49;81.61;100595.61;1785965;78;99193;-61
2022/07/31 06:15:30;;;;;;;10.50;3.60;;;;;;;16.46;81.51;100594.95;1785763;78;25716;-61
2022/07/31 06:17:56;;;;;;;7.10;3.80;;;;;;;16.46;81.45;100596.30;1788392;78;25845;-61
2022/07/31 06:20:22;;;;;;;7.75;3.70;;;;;;;16.48;81.45;100594.36;1779724;78;27423;-60
2022/07/31 06:22:48;;;;;;;7.67;3.55;;;;;;;16.52;81.37;100594.05;1788885;78;25824;-61
2022/07/31 06:25:13;;;;;;;8.03;3.95;;;;;;;16.57;81.34;100592.38;1783656;78;25857;-61
2022/07/31 06:27:40;;;;;;;6.30;3.55;;;;;;;16.56;81.13;100593.34;1787659;78;26489;-61
2022/07/31 06:30:12;;;;;;;8.65;3.83;;;;;;;16.55;81.12;100598.38;1784624;78;25762;-61
2022/07/31 06:32:38;;;;;;;5.08;3.85;;;;;;;16.53;80.96;100601.19;1782163;78;27366;-61
2022/07/31 06:35:06;;;;;;;11.03;4.37;;;;;;;16.48;80.91;100600.64;1784066;78;25796;-61
2022/07/31 06:37:32;;;;;;;6.45;4.08;;;;;;;16.44;80.81;100605.02;1786918;78;25821;-60
2022/07/31 06:39:58;;;;;;;13.18;4.45;;;;;;;16.41;80.83;100603.87;1785751;78;25781;-60
2022/07/31 06:42:25;;;;;;;9.20;4.15;;;;;;;16.40;80.83;100608.41;1788182;78;25805;-60
2022/07/31 06:44:53;;;;;;;10.45;3.87;;;;;;;16.37;80.65;100611.33;1796327;78;28028;-60
2022/07/31 06:47:23;;;;;;;8.93;4.40;;;;;;;16.35;80.68;100613.27;1789628;78;26413;-60
2022/07/31 06:49:50;;;;;;;13.48;4.20;;;;;;;16.36;80.75;100612.30;1787327;78;25732;-60
2022/07/31 06:52:17;;;;;;;10.65;4.47;;;;;;;16.35;80.64;100615.11;1789430;78;25733;-60
2022/07/31 06:54:43;;;;;;;12.47;4.95;;;;;;;16.30;80.56;100610.49;1788636;78;26763;-60
2022/07/31 06:57:10;;;;;;;7.60;4.92;;;;;;;16.27;80.55;100618.33;1782498;78;27535;-59
2022/07/31 06:59:36;;;;;;;11.15;4.45;;;;;;;16.23;80.59;100614.96;1787738;78;25752;-60
2022/07/31 07:02:02;;;;;;;7.67;4.50;;;;;;;16.23;80.62;100616.31;1786725;78;25825;-60
2022/07/31 07:04:28;;;;;;;6.78;4.67;;;;;;;16.26;80.76;100616.59;1789481;78;99149;-60
2022/07/31 07:06:54;;;;;;;5.35;4.15;;;;;;;16.28;80.67;100615.14;1786908;78;28172;-60
2022/07/31 07:09:21;;;;;;;8.23;4.37;;;;;;;16.32;80.75;100620.72;1785899;78;29477;-60
2022/07/31 07:11:47;;;;;;;7.67;3.72;;;;;;;16.34;80.72;100616.08;1789904;78;100760;-60
2022/07/31 07:14:15;;;;;;;14.30;4.47;;;;;;;16.33;80.70;100619.75;1782416;78;25731;-60
2022/07/31 07:16:41;;;;;;;5.37;3.95;;;;;;;16.33;80.75;100613.86;1786585;78;98987;-60
2022/07/31 07:19:06;;;;;;;7.30;3.90;;;;;;;16.37;80.77;100614.52;1785125;78;26141;-61
2022/07/31 07:21:32;;;;;;;5.50;3.72;;;;;;;16.42;80.71;100613.72;1790496;78;27435;-59
2022/07/31 07:23:58;;;;;;;11.10;3.75;;;;;;;16.46;80.69;100613.41;1787949;78;98685;-60
2022/07/31 07:26:24;;;;;;;5.53;3.10;;;;;;;16.52;80.72;100606.22;1790729;78;25943;-60
2022/07/31 07:28:50;;;;;;;2.77;2.52;;;;;;;16.58;80.70;100604.07;1789410;78;98704;-60
2022/07/31 07:31:16;;;;;;;7.70;3.85;;;;;;;16.60;80.61;100602.98;1783334;78;25722;-61
2022/07/31 07:33:42;;;;;;;7.12;3.10;;;;;;;16.67;80.59;100602.98;1788598;78;29556;-61
2022/07/31 07:36:11;;;;;;;7.55;2.80;;;;;;;16.74;80.54;100607.48;1787676;78;98727;-60
2022/07/31 07:38:37;;;;;;;6.45;3.30;;;;;;;16.83;80.55;100608.20;1795778;78;25730;-60
2022/07/31 07:41:03;;;;;;;10.40;3.37;;;;;;;16.89;80.49;100605.06;1784499;78;98770;-61
2022/07/31 07:43:29;;;;;;;7.47;2.77;;;;;;;16.99;80.42;100607.98;1778038;78;25796;-60
2022/07/31 07:45:55;;;;;;;3.47;2.67;;;;;;;17.06;80.32;100607.94;1782225;78;27470;-60
2022/07/31 07:48:20;;;;;;;7.20;2.75;;;;;;;17.15;80.33;100605.44;1782899;78;98726;-60
2022/07/31 07:50:46;;;;;;;5.03;2.80;;;;;;;17.19;80.11;100606.95;1782623;78;25841;-60
2022/07/31 07:53:12;;;;;;;6.45;2.70;;;;;;;17.21;79.96;100612.26;1778261;78;25891;-60
2022/07/31 07:55:38;;;;;;;4.20;2.60;;;;;;;17.23;79.85;100609.44;1787636;78;25923;-62
2022/07/31 07:58:04;;;;;;;4.47;2.60;;;;;;;17.23;79.72;100612.15;1781155;78;27507;-61
2022/07/31 08:00:31;;;;;;;7.75;2.72;;;;;;;17.26;79.57;100613.28;1780904;78;27218;-61
2022/07/31 08:02:57;;;;;;;6.95;2.40;;;;;;;17.31;79.46;100611.11;1783430;78;26478;-62
2022/07/31 08:05:23;;;;;;;8.15;2.08;;;;;;;17.37;79.29;100621.52;1783515;78;26524;-61
2022/07/31 08:07:49;;;;;;;7.55;2.85;;;;;;;17.41;79.11;100613.53;1782016;78;26436;-61
2022/07/31 08:10:18;;;;;;;8.45;2.90;;;;;;;17.49;79.11;100613.36;1783232;78;27487;-62
2022/07/31 08:12:42;;;;;;;6.47;2.15;;;;;;;17.58;79.02;100614.53;1782843;78;26645;-62
2022/07/31 08:15:09;;;;;;;8.18;1.80;;;;;;;17.69;78.90;100611.07;1781127;78;25579;-62
2022/07/31 08:17:39;;;;;;;7.05;2.35;;;;;;;17.75;78.46;100609.27;1780275;78;25805;-62
2022/07/31 08:20:04;;;;;;;5.05;2.15;;;;;;;17.76;77.92;100610.52;1777426;78;98776;-62
2022/07/31 08:22:30;;;;;;;6.97;2.40;;;;;;;17.83;77.84;100606.86;1781130;78;27038;-62
2022/07/31 08:25:04;;;;;;;5.17;1.90;;;;;;;17.90;77.68;100612.69;1783267;78;98927;-62
2022/07/31 08:27:29;;;;;;;2.75;2.12;;;;;;;17.96;77.36;100612.23;1776764;78;25732;-62
2022/07/31 08:29:59;;;;;;;2.80;1.87;;;;;;;18.02;77.04;100611.28;1782751;78;25777;-62
2022/07/31 08:32:26;;;;;;;7.45;2.05;;;;;;;18.12;77.03;100602.83;1781534;78;98762;-62
2022/07/31 08:34:54;;;;;;;4.00;1.55;;;;;;;18.21;77.00;100609.38;1782006;78;28473;-63
2022/07/31 08:37:21;;;;;;;4.55;1.77;;;;;;;18.28;76.61;100607.94;1782014;78;98680;-62
2022/07/31 08:39:49;;;;;;;6.22;1.72;;;;;;;18.33;76.00;100603.02;1779984;78;25753;-62
2022/07/31 08:42:19;;;;;;;4.78;1.57;;;;;;;18.40;75.94;100602.06;1788811;78;25768;-62
2022/07/31 08:44:46;;;;;;;2.10;1.43;;;;;;;18.50;75.79;100603.95;1781266;78;98425;-62
2022/07/31 08:47:14;;;;;;;4.72;1.80;;;;;;;18.55;75.10;100594.09;1781510;78;27364;-63
2022/07/31 08:49:46;;;;;;;7.12;1.70;;;;;;;18.59;73.90;100605.59;1781319;78;25818;-62
2022/07/31 08:52:31;;;;;;;4.33;1.80;;;;;;;18.60;74.17;100601.39;1783541;78;25868;-63
2022/07/31 08:54:57;;;;;;;2.20;1.65;;;;;;;18.64;74.25;100598.84;1782372;78;26266;-63
2022/07/31 08:57:28;;;;;;;6.83;1.65;;;;;;;18.72;74.11;100601.83;1778193;78;97826;-63
2022/07/31 08:59:54;;;;;;;6.80;1.45;;;;;;;18.79;74.10;100595.43;1780292;78;29399;-63
2022/07/31 09:02:21;;;;;;;3.50;1.90;;;;;;;18.91;74.03;100591.75;1776770;78;26514;-62
2022/07/31 09:04:48;;;;;;;3.02;1.70;;;;;;;19.01;73.98;100591.89;1785655;78;25793;-63
2022/07/31 09:07:14;;;;;;;6.78;2.02;;;;;;;19.12;73.78;100593.27;1780845;80;26373;-63
2022/07/31 09:09:46;;;;;;;6.35;2.20;;;;;;;19.20;73.61;100594.01;1786905;78;25776;-63
2022/07/31 09:12:20;;;;;;;7.97;2.27;;;;;;;19.29;73.42;100585.11;1786813;78;27925;-62
2022/07/31 09:14:47;;;;;;;6.00;3.33;;;;;;;19.40;73.29;100594.62;1783258;78;25746;-63
2022/07/31 09:17:14;;;;;;;;;;;;;;;19.49;73.04;100589.80;1790410;78;25544;-63
2022/07/31 09:19:44;;;;;;;5.72;1.55;;;;;;;19.51;72.00;100581.03;1777959;78;27945;-62
2022/07/31 09:22:25;;;;;;;3.55;1.47;;;;;;;19.51;71.33;100587.83;1781935;78;98643;-64
2022/07/31 09:24:52;;;;;;;4.50;1.35;;;;;;;19.55;71.07;100580.31;1775429;78;28261;-62
2022/07/31 09:27:18;;;;;;;4.35;1.72;;;;;;;19.66;70.39;100577.09;1777617;78;25788;-62
2022/07/31 09:29:48;;;;;;;4.35;1.70;;;;;;;19.66;70.39;100577.09;1782061;78;26604;-63
2022/07/31 09:32:17;;;;;;;4.30;1.35;;;;;;;19.73;70.54;100583.75;1781625;78;26365;-64
2022/07/31 09:34:45;;;;;;;1.95;1.32;;;;;;;19.82;70.35;100579.91;1782122;78;26053;-63
2022/07/31 09:37:17;;;;;;;2.72;1.42;;;;;;;19.95;68.31;100569.23;1782084;78;27455;-62
2022/07/31 09:39:55;;;;;;;4.75;1.40;;;;;;;19.95;68.31;100569.23;1752317;80;25825;-63
2022/07/31 09:42:23;;;;;;;1.00;1.00;;;;;;;20.01;68.36;100566.00;1761331;79;25916;-63
2022/07/31 09:44:50;;;;;;;5.60;1.70;;;;;;;20.12;68.28;100569.67;1759421;79;26659;-64
2022/07/31 09:47:25;;;;;;;3.17;1.47;;;;;;;20.24;66.91;100565.91;1753243;81;25914;-63
2022/07/31 09:49:58;;;;;;;5.70;1.35;;;;;;;20.35;66.54;100565.86;1758583;79;28308;-63
2022/07/31 09:52:27;;;;;;;3.90;1.02;;;;;;;20.43;66.31;100560.66;1749349;79;25782;-62
2022/07/31 09:55:08;;;;;;;7.28;1.20;;;;;;;20.43;66.31;100560.66;1763104;79;25819;-62
2022/07/31 09:57:36;;;;;;;5.37;1.10;;;;;;;20.50;66.07;100558.27;1754826;79;25816;-63
2022/07/31 10:00:07;;;;;;;6.08;1.42;;;;;;;20.58;65.67;100564.78;1751332;79;25908;-61
2022/07/31 10:02:37;;;;;;;5.62;1.25;;;;;;;20.62;65.39;100558.58;1754105;79;27530;-63
2022/07/31 10:05:04;;;;;;;4.60;1.20;;;;;;;20.75;64.56;100555.16;1763780;79;25766;-62
2022/07/31 10:07:34;;;;;;;4.33;1.10;;;;;;;20.78;64.60;100565.78;1724732;81;25886;-63
2022/07/31 10:10:01;;;;;;;2.85;1.30;;;;;;;20.84;63.72;100558.41;1729387;81;25920;-63
2022/07/31 10:12:29;;;;;;;5.20;0.95;;;;;;;20.83;63.24;100546.28;1761560;79;25963;-62
2022/07/31 10:15:01;;;;;;;2.08;0.90;;;;;;;20.97;62.97;100556.33;1733837;80;27311;-62
2022/07/31 10:17:29;;;;;;;7.25;1.25;;;;;;;21.05;62.85;100559.23;1732559;81;25785;-62
2022/07/31 10:20:01;;;;;;;3.58;1.32;;;;;;;21.15;62.54;100551.61;1760540;79;98993;-62
2022/07/31 10:22:35;;;;;;;2.05;1.37;;;;;;;21.32;61.30;100555.09;1766626;79;26013;-62
2022/07/31 10:25:02;;;;;;;4.55;1.10;;;;;;;21.38;60.87;100542.27;1729131;81;99485;-61
2022/07/31 10:27:29;;;;;;;2.60;1.10;;;;;;;21.46;60.56;100536.98;1757514;79;27554;-62
2022/07/31 10:29:57;;;;;;;5.80;1.20;;;;;;;21.54;59.47;100549.92;1789130;78;25744;-62
2022/07/31 10:32:23;;;;;;;8.03;1.27;;;;;;;21.65;59.63;100532.95;1788518;78;25781;-61
2022/07/31 10:34:50;;;;;;;3.05;1.10;;;;;;;21.75;59.72;100532.10;1782661;78;25777;-62
2022/07/31 10:37:34;;;;;;;4.37;0.95;;;;;;;21.83;58.47;100527.67;1787208;78;98975;-62
2022/07/31 10:40:11;;;;;;;6.08;0.70;;;;;;;21.95;56.66;100525.67;1793660;78;27464;-61
2022/07/31 10:43:00;;;;;;;4.25;1.20;;;;;;;22.02;56.88;100535.05;1788708;78;26023;-62
2022/07/31 10:45:26;;;;;;;1.80;0.80;;;;;;;22.05;54.97;100534.77;1786047;78;26161;-62
2022/07/31 10:47:58;;;;;;;2.05;0.98;;;;;;;22.06;54.23;100537.85;1791406;78;27829;-61
2022/07/31 10:50:29;;;;;;;1.02;0.75;;;;;;;22.18;54.22;100535.34;1791177;78;98771;-62
2022/07/31 10:53:11;;;;;;;1.37;0.75;;;;;;;22.27;53.17;100528.16;1733286;80;27331;-62
2022/07/31 10:55:37;;;;;;;1.22;0.70;;;;;;;22.40;53.62;100542.37;1752872;79;25855;-61
2022/07/31 10:58:18;;;;;;;2.65;1.10;;;;;;;22.48;51.51;100530.22;1724778;81;25744;-62
2022/07/31 11:00:44;;;;;;;2.42;1.32;;;;;;;22.54;51.51;100528.78;1790547;78;26100;-61
2022/07/31 11:03:18;;;;;;;1.20;0.98;;;;;;;22.59;51.73;100523.23;1793405;78;25797;-61
2022/07/31 11:05:57;;;;;;;2.30;1.00;;;;;;;22.68;51.26;100526.45;1791028;78;27423;-61
2022/07/31 11:08:24;;;;;;;2.60;0.80;;;;;;;22.86;51.89;100511.55;1791490;78;26514;-61
2022/07/31 11:10:52;;;;;;;3.65;0.88;;;;;;;23.04;51.55;100514.87;1787718;79;26497;-62
2022/07/31 11:13:19;;;;;;;1.52;0.93;;;;;;;23.19;51.19;100519.70;1789398;78;26492;-61
2022/07/31 11:15:46;;;;;;;4.22;1.00;;;;;;;23.19;50.83;100514.23;1795861;78;25825;-62
2022/07/31 11:18:19;;;;;;;2.35;1.20;;;;;;;23.32;49.93;100516.62;1790564;78;27400;-61
2022/07/31 11:20:46;;;;;;;2.72;0.70;;;;;;;23.40;49.91;100508.52;1787952;78;26369;-62
2022/07/31 11:23:16;;;;;;;1.87;0.72;;;;;;;23.48;49.84;100507.22;1782214;78;98636;-62
2022/07/31 11:25:44;;;;;;;5.72;1.12;;;;;;;23.59;48.50;100501.56;1794113;78;26412;-62
2022/07/31 11:28:23;;;;;;;4.33;0.93;;;;;;;23.62;47.80;100501.27;1790542;78;98887;-62
2022/07/31 11:31:00;;;;;;;3.58;1.02;;;;;;;23.77;48.19;100504.84;1787087;78;27402;-62